EPBC weather

Babice Airport
Masovia, Poland

Public forecast

Using degrees Celsius for public forecast. Weather courtesy of forecast.io.

Closest aviation weather report (METAR) to Babice Airport

Closest report is Warsaw Chopin Airport, 6.5 nm (12.1 km) SSE. Retrieved 2020/05/30 09:30 UTC (13 minutes ago):

EPWA 300930Z 32016KT 9999 -SHRA FEW053CB 14/05 Q1016 NOSIG

Closest aviation forecast (TAF) to Babice Airport

Closest forecast is Warsaw Chopin Airport, 6.5 nm (12.1 km) SSE. Retrieved 2020/05/30 09:33 UTC (10 minutes ago):

TAF EPWA 300830Z 3009/3109 34010KT 9999 SCT045 TEMPO 3009/3017 36016G30KT -SHRA BKN030CB TEMPO 3017/3106 01016G31KT 4000 RA BKN012 BKN025 PROB40 TEMPO 3020/3105 2000 RADZ BKN004 BKN007 TEMPO 3106/3109 02015G28KT